sensor_id;sensor_type;location;lat;lon;timestamp;P1;durP1;ratioP1;P2;durP2;ratioP2
12222;SDS011;6174;49.058;8.524;2022-08-06T00:01:57;1.70;;;1.40;;
12222;SDS011;6174;49.058;8.524;2022-08-06T00:04:25;2.10;;;1.50;;
12222;SDS011;6174;49.058;8.524;2022-08-06T00:06:52;2.43;;;1.30;;
12222;SDS011;6174;49.058;8.524;2022-08-06T00:09:19;1.60;;;1.50;;
12222;SDS011;6174;49.058;8.524;2022-08-06T00:11:55;1.97;;;1.50;;
12222;SDS011;6174;49.058;8.524;2022-08-06T00:14:37;1.67;;;1.57;;
12222;SDS011;6174;49.058;8.524;2022-08-06T00:17:04;1.83;;;1.60;;
12222;SDS011;6174;49.058;8.524;2022-08-06T00:19:32;2.20;;;1.37;;
12222;SDS011;6174;49.058;8.524;2022-08-06T00:21:59;1.70;;;1.30;;
12222;SDS011;6174;49.058;8.524;2022-08-06T00:24:26;1.77;;;1.50;;
12222;SDS011;6174;49.058;8.524;2022-08-06T00:26:53;1.47;;;1.20;;
12222;SDS011;6174;49.058;8.524;2022-08-06T00:29:20;1.43;;;1.33;;
12222;SDS011;6174;49.058;8.524;2022-08-06T00:31:56;2.13;;;1.50;;
12222;SDS011;6174;49.058;8.524;2022-08-06T00:34:23;1.83;;;1.60;;
12222;SDS011;6174;49.058;8.524;2022-08-06T00:36:54;2.47;;;1.40;;
12222;SDS011;6174;49.058;8.524;2022-08-06T00:39:20;2.40;;;1.30;;
12222;SDS011;6174;49.058;8.524;2022-08-06T00:41:47;1.83;;;1.40;;
12222;SDS011;6174;49.058;8.524;2022-08-06T00:44:14;2.93;;;1.57;;
12222;SDS011;6174;49.058;8.524;2022-08-06T00:46:42;1.50;;;1.20;;
12222;SDS011;6174;49.058;8.524;2022-08-06T00:49:40;3.03;;;1.57;;
12222;SDS011;6174;49.058;8.524;2022-08-06T00:55:07;1.50;;;1.40;;
12222;SDS011;6174;49.058;8.524;2022-08-06T00:57:40;1.97;;;1.43;;
12222;SDS011;6174;49.058;8.524;2022-08-06T01:00:09;1.67;;;1.47;;
12222;SDS011;6174;49.058;8.524;2022-08-06T01:02:37;2.27;;;1.50;;
12222;SDS011;6174;49.058;8.524;2022-08-06T01:05:04;1.40;;;1.30;;
12222;SDS011;6174;49.058;8.524;2022-08-06T01:07:31;2.07;;;1.50;;
12222;SDS011;6174;49.058;8.524;2022-08-06T01:10:04;1.30;;;1.20;;
12222;SDS011;6174;49.058;8.524;2022-08-06T01:12:35;1.90;;;1.47;;
12222;SDS011;6174;49.058;8.524;2022-08-06T01:15:05;1.20;;;1.10;;
12222;SDS011;6174;49.058;8.524;2022-08-06T01:17:34;1.50;;;1.40;;
12222;SDS011;6174;49.058;8.524;2022-08-06T01:20:08;1.43;;;1.20;;
12222;SDS011;6174;49.058;8.524;2022-08-06T01:22:48;2.40;;;1.20;;
12222;SDS011;6174;49.058;8.524;2022-08-06T01:25:37;3.90;;;1.40;;
12222;SDS011;6174;49.058;8.524;2022-08-06T01:28:26;1.17;;;1.17;;
12222;SDS011;6174;49.058;8.524;2022-08-06T01:30:59;1.70;;;1.40;;
12222;SDS011;6174;49.058;8.524;2022-08-06T01:33:32;1.60;;;1.50;;
12222;SDS011;6174;49.058;8.524;2022-08-06T01:36:04;1.30;;;1.20;;
12222;SDS011;6174;49.058;8.524;2022-08-06T01:38:35;1.93;;;1.50;;
12222;SDS011;6174;49.058;8.524;2022-08-06T01:41:08;2.17;;;1.37;;
12222;SDS011;6174;49.058;8.524;2022-08-06T01:43:40;1.90;;;1.53;;
12222;SDS011;6174;49.058;8.524;2022-08-06T01:46:09;1.60;;;1.37;;
12222;SDS011;6174;49.058;8.524;2022-08-06T01:48:39;2.20;;;1.40;;
12222;SDS011;6174;49.058;8.524;2022-08-06T01:51:07;3.00;;;1.43;;
12222;SDS011;6174;49.058;8.524;2022-08-06T01:53:36;2.50;;;1.60;;
12222;SDS011;6174;49.058;8.524;2022-08-06T01:56:06;1.30;;;1.20;;
12222;SDS011;6174;49.058;8.524;2022-08-06T01:58:34;1.80;;;1.30;;
12222;SDS011;6174;49.058;8.524;2022-08-06T02:01:06;1.40;;;1.30;;
12222;SDS011;6174;49.058;8.524;2022-08-06T02:03:38;1.77;;;1.33;;
12222;SDS011;6174;49.058;8.524;2022-08-06T02:06:09;1.40;;;1.30;;
12222;SDS011;6174;49.058;8.524;2022-08-06T02:08:40;2.03;;;1.40;;
12222;SDS011;6174;49.058;8.524;2022-08-06T02:11:09;1.90;;;1.13;;
12222;SDS011;6174;49.058;8.524;2022-08-06T02:13:37;1.13;;;1.03;;
12222;SDS011;6174;49.058;8.524;2022-08-06T02:16:08;1.40;;;1.30;;
12222;SDS011;6174;49.058;8.524;2022-08-06T02:18:39;3.33;;;1.50;;
12222;SDS011;6174;49.058;8.524;2022-08-06T02:21:20;1.77;;;1.30;;
12222;SDS011;6174;49.058;8.524;2022-08-06T02:23:48;1.33;;;1.23;;
12222;SDS011;6174;49.058;8.524;2022-08-06T02:26:20;3.00;;;1.40;;
12222;SDS011;6174;49.058;8.524;2022-08-06T02:28:51;1.40;;;1.30;;
12222;SDS011;6174;49.058;8.524;2022-08-06T02:31:23;1.80;;;1.60;;
12222;SDS011;6174;49.058;8.524;2022-08-06T02:33:50;2.00;;;1.50;;
12222;SDS011;6174;49.058;8.524;2022-08-06T02:36:18;1.50;;;1.40;;
12222;SDS011;6174;49.058;8.524;2022-08-06T02:38:50;1.50;;;1.40;;
12222;SDS011;6174;49.058;8.524;2022-08-06T02:41:23;1.47;;;1.30;;
12222;SDS011;6174;49.058;8.524;2022-08-06T02:43:56;1.50;;;1.30;;
12222;SDS011;6174;49.058;8.524;2022-08-06T02:46:31;1.33;;;1.23;;
12222;SDS011;6174;49.058;8.524;2022-08-06T02:49:05;1.63;;;1.23;;
12222;SDS011;6174;49.058;8.524;2022-08-06T02:51:39;1.63;;;1.53;;
12222;SDS011;6174;49.058;8.524;2022-08-06T02:54:12;2.43;;;1.23;;
12222;SDS011;6174;49.058;8.524;2022-08-06T02:56:44;2.10;;;1.50;;
12222;SDS011;6174;49.058;8.524;2022-08-06T02:59:12;2.30;;;1.50;;
12222;SDS011;6174;49.058;8.524;2022-08-06T03:01:45;2.37;;;1.80;;
12222;SDS011;6174;49.058;8.524;2022-08-06T03:04:16;2.30;;;1.40;;
12222;SDS011;6174;49.058;8.524;2022-08-06T03:06:45;3.13;;;1.70;;
12222;SDS011;6174;49.058;8.524;2022-08-06T03:09:12;2.03;;;1.50;;
12222;SDS011;6174;49.058;8.524;2022-08-06T03:11:44;1.83;;;1.60;;
12222;SDS011;6174;49.058;8.524;2022-08-06T03:14:12;2.67;;;1.57;;
12222;SDS011;6174;49.058;8.524;2022-08-06T03:16:40;1.60;;;1.50;;
12222;SDS011;6174;49.058;8.524;2022-08-06T03:19:10;2.67;;;1.67;;
12222;SDS011;6174;49.058;8.524;2022-08-06T03:21:39;2.07;;;1.40;;
12222;SDS011;6174;49.058;8.524;2022-08-06T03:24:07;1.70;;;1.47;;
12222;SDS011;6174;49.058;8.524;2022-08-06T03:26:35;1.60;;;1.50;;
12222;SDS011;6174;49.058;8.524;2022-08-06T03:29:03;2.90;;;1.70;;
12222;SDS011;6174;49.058;8.524;2022-08-06T03:31:30;2.77;;;1.80;;
12222;SDS011;6174;49.058;8.524;2022-08-06T03:34:00;3.83;;;1.90;;
12222;SDS011;6174;49.058;8.524;2022-08-06T03:36:27;1.80;;;1.50;;
12222;SDS011;6174;49.058;8.524;2022-08-06T03:38:56;2.53;;;1.93;;
12222;SDS011;6174;49.058;8.524;2022-08-06T03:41:24;2.10;;;1.80;;
12222;SDS011;6174;49.058;8.524;2022-08-06T03:43:53;2.30;;;1.83;;
12222;SDS011;6174;49.058;8.524;2022-08-06T03:46:21;2.00;;;1.90;;
12222;SDS011;6174;49.058;8.524;2022-08-06T03:48:51;2.17;;;2.03;;
12222;SDS011;6174;49.058;8.524;2022-08-06T03:51:22;2.53;;;2.30;;
12222;SDS011;6174;49.058;8.524;2022-08-06T03:53:51;3.33;;;2.57;;
12222;SDS011;6174;49.058;8.524;2022-08-06T03:56:20;4.23;;;2.73;;
12222;SDS011;6174;49.058;8.524;2022-08-06T03:58:50;3.07;;;2.43;;
12222;SDS011;6174;49.058;8.524;2022-08-06T04:01:20;3.03;;;2.70;;
12222;SDS011;6174;49.058;8.524;2022-08-06T04:03:49;2.97;;;2.67;;
12222;SDS011;6174;49.058;8.524;2022-08-06T04:06:17;5.07;;;2.87;;
12222;SDS011;6174;49.058;8.524;2022-08-06T04:08:47;2.77;;;2.57;;
12222;SDS011;6174;49.058;8.524;2022-08-06T04:11:15;3.47;;;2.73;;
12222;SDS011;6174;49.058;8.524;2022-08-06T04:13:42;3.43;;;2.70;;
12222;SDS011;6174;49.058;8.524;2022-08-06T04:16:10;3.50;;;2.70;;
12222;SDS011;6174;49.058;8.524;2022-08-06T04:18:38;2.53;;;2.33;;
12222;SDS011;6174;49.058;8.524;2022-08-06T04:21:08;2.60;;;2.40;;
12222;SDS011;6174;49.058;8.524;2022-08-06T04:23:38;2.67;;;2.13;;
12222;SDS011;6174;49.058;8.524;2022-08-06T04:26:07;3.83;;;2.50;;
12222;SDS011;6174;49.058;8.524;2022-08-06T04:28:35;3.77;;;2.20;;
12222;SDS011;6174;49.058;8.524;2022-08-06T04:31:06;2.23;;;2.03;;
12222;SDS011;6174;49.058;8.524;2022-08-06T04:33:35;1.83;;;1.73;;
12222;SDS011;6174;49.058;8.524;2022-08-06T04:36:06;3.23;;;1.93;;
12222;SDS011;6174;49.058;8.524;2022-08-06T04:38:34;1.90;;;1.80;;
12222;SDS011;6174;49.058;8.524;2022-08-06T04:41:01;2.67;;;1.90;;
12222;SDS011;6174;49.058;8.524;2022-08-06T04:43:30;3.80;;;1.93;;
12222;SDS011;6174;49.058;8.524;2022-08-06T04:45:57;3.30;;;1.90;;
12222;SDS011;6174;49.058;8.524;2022-08-06T04:48:24;3.10;;;2.10;;
12222;SDS011;6174;49.058;8.524;2022-08-06T04:50:52;2.17;;;1.70;;
12222;SDS011;6174;49.058;8.524;2022-08-06T04:53:19;1.90;;;1.80;;
12222;SDS011;6174;49.058;8.524;2022-08-06T04:55:46;2.10;;;2.00;;
12222;SDS011;6174;49.058;8.524;2022-08-06T04:58:15;3.13;;;1.80;;
12222;SDS011;6174;49.058;8.524;2022-08-06T05:00:44;1.93;;;1.80;;
12222;SDS011;6174;49.058;8.524;2022-08-06T05:03:12;2.63;;;2.00;;
12222;SDS011;6174;49.058;8.524;2022-08-06T05:05:42;2.30;;;1.90;;
12222;SDS011;6174;49.058;8.524;2022-08-06T05:08:12;4.17;;;2.10;;
12222;SDS011;6174;49.058;8.524;2022-08-06T05:10:41;2.90;;;1.90;;
12222;SDS011;6174;49.058;8.524;2022-08-06T05:13:13;2.83;;;2.13;;
12222;SDS011;6174;49.058;8.524;2022-08-06T05:15:43;2.57;;;1.97;;
12222;SDS011;6174;49.058;8.524;2022-08-06T05:18:15;2.43;;;1.90;;
12222;SDS011;6174;49.058;8.524;2022-08-06T05:20:48;2.67;;;1.87;;
12222;SDS011;6174;49.058;8.524;2022-08-06T05:23:18;2.17;;;1.97;;
12222;SDS011;6174;49.058;8.524;2022-08-06T05:25:47;3.23;;;2.27;;
12222;SDS011;6174;49.058;8.524;2022-08-06T05:28:15;2.40;;;2.13;;
12222;SDS011;6174;49.058;8.524;2022-08-06T05:30:44;2.30;;;1.80;;
12222;SDS011;6174;49.058;8.524;2022-08-06T05:33:21;2.87;;;2.10;;
12222;SDS011;6174;49.058;8.524;2022-08-06T05:35:48;2.30;;;1.80;;
12222;SDS011;6174;49.058;8.524;2022-08-06T05:38:15;2.17;;;1.80;;
12222;SDS011;6174;49.058;8.524;2022-08-06T05:40:42;2.67;;;1.80;;
12222;SDS011;6174;49.058;8.524;2022-08-06T05:43:09;3.93;;;2.00;;
12222;SDS011;6174;49.058;8.524;2022-08-06T05:45:36;2.80;;;2.00;;
12222;SDS011;6174;49.058;8.524;2022-08-06T05:48:08;3.27;;;2.00;;
12222;SDS011;6174;49.058;8.524;2022-08-06T05:50:39;3.10;;;2.00;;
12222;SDS011;6174;49.058;8.524;2022-08-06T05:53:11;3.23;;;2.00;;
12222;SDS011;6174;49.058;8.524;2022-08-06T05:55:42;2.23;;;2.00;;
12222;SDS011;6174;49.058;8.524;2022-08-06T05:58:15;2.43;;;1.90;;
12222;SDS011;6174;49.058;8.524;2022-08-06T06:00:46;2.53;;;1.80;;
12222;SDS011;6174;49.058;8.524;2022-08-06T06:03:15;2.33;;;2.13;;
12222;SDS011;6174;49.058;8.524;2022-08-06T06:05:44;4.03;;;1.90;;
12222;SDS011;6174;49.058;8.524;2022-08-06T06:08:11;1.97;;;1.83;;
12222;SDS011;6174;49.058;8.524;2022-08-06T06:10:40;2.17;;;2.00;;
12222;SDS011;6174;49.058;8.524;2022-08-06T06:13:10;2.87;;;2.10;;
12222;SDS011;6174;49.058;8.524;2022-08-06T06:15:38;2.77;;;2.10;;
12222;SDS011;6174;49.058;8.524;2022-08-06T06:18:11;3.27;;;1.87;;
12222;SDS011;6174;49.058;8.524;2022-08-06T06:20:52;1.80;;;1.70;;
12222;SDS011;6174;49.058;8.524;2022-08-06T06:23:26;2.20;;;2.00;;
12222;SDS011;6174;49.058;8.524;2022-08-06T06:26:01;2.03;;;1.90;;
12222;SDS011;6174;49.058;8.524;2022-08-06T06:28:49;2.80;;;1.70;;
12222;SDS011;6174;49.058;8.524;2022-08-06T06:31:25;2.00;;;1.73;;
12222;SDS011;6174;49.058;8.524;2022-08-06T06:33:59;2.03;;;1.90;;
12222;SDS011;6174;49.058;8.524;2022-08-06T06:36:34;3.30;;;1.97;;
12222;SDS011;6174;49.058;8.524;2022-08-06T06:39:12;1.70;;;1.60;;
12222;SDS011;6174;49.058;8.524;2022-08-06T06:41:47;1.97;;;1.60;;
12222;SDS011;6174;49.058;8.524;2022-08-06T06:44:20;1.90;;;1.77;;
12222;SDS011;6174;49.058;8.524;2022-08-06T06:46:51;3.87;;;2.10;;
12222;SDS011;6174;49.058;8.524;2022-08-06T06:49:34;3.53;;;1.93;;
12222;SDS011;6174;49.058;8.524;2022-08-06T06:52:07;1.70;;;1.60;;
12222;SDS011;6174;49.058;8.524;2022-08-06T06:54:40;2.13;;;1.80;;
12222;SDS011;6174;49.058;8.524;2022-08-06T06:57:09;3.13;;;1.80;;
12222;SDS011;6174;49.058;8.524;2022-08-06T06:59:41;1.80;;;1.70;;
12222;SDS011;6174;49.058;8.524;2022-08-06T07:02:13;2.00;;;1.80;;
12222;SDS011;6174;49.058;8.524;2022-08-06T07:04:46;3.90;;;1.73;;
12222;SDS011;6174;49.058;8.524;2022-08-06T07:07:15;2.60;;;1.80;;
12222;SDS011;6174;49.058;8.524;2022-08-06T07:09:43;3.40;;;2.00;;
12222;SDS011;6174;49.058;8.524;2022-08-06T07:12:12;3.13;;;1.90;;
12222;SDS011;6174;49.058;8.524;2022-08-06T07:14:40;3.50;;;2.00;;
12222;SDS011;6174;49.058;8.524;2022-08-06T07:17:08;2.47;;;1.77;;
12222;SDS011;6174;49.058;8.524;2022-08-06T07:19:37;2.67;;;2.00;;
12222;SDS011;6174;49.058;8.524;2022-08-06T07:22:06;2.63;;;1.80;;
12222;SDS011;6174;49.058;8.524;2022-08-06T07:24:35;2.07;;;1.80;;
12222;SDS011;6174;49.058;8.524;2022-08-06T07:27:03;2.80;;;1.77;;
12222;SDS011;6174;49.058;8.524;2022-08-06T07:29:30;2.33;;;1.70;;
12222;SDS011;6174;49.058;8.524;2022-08-06T07:31:58;2.77;;;1.70;;
12222;SDS011;6174;49.058;8.524;2022-08-06T07:34:26;1.97;;;1.77;;
12222;SDS011;6174;49.058;8.524;2022-08-06T07:36:53;1.97;;;1.50;;
12222;SDS011;6174;49.058;8.524;2022-08-06T07:39:23;1.60;;;1.50;;
12222;SDS011;6174;49.058;8.524;2022-08-06T07:41:53;2.03;;;1.60;;
12222;SDS011;6174;49.058;8.524;2022-08-06T07:44:25;2.50;;;1.53;;
12222;SDS011;6174;49.058;8.524;2022-08-06T07:46:54;2.67;;;1.67;;
12222;SDS011;6174;49.058;8.524;2022-08-06T07:49:25;1.77;;;1.67;;
12222;SDS011;6174;49.058;8.524;2022-08-06T07:52:05;2.13;;;1.40;;
12222;SDS011;6174;49.058;8.524;2022-08-06T07:54:35;1.57;;;1.33;;
12222;SDS011;6174;49.058;8.524;2022-08-06T07:57:03;1.50;;;1.40;;
12222;SDS011;6174;49.058;8.524;2022-08-06T07:59:32;1.73;;;1.60;;
12222;SDS011;6174;49.058;8.524;2022-08-06T08:01:59;1.97;;;1.30;;
12222;SDS011;6174;49.058;8.524;2022-08-06T08:04:28;2.83;;;1.43;;
12222;SDS011;6174;49.058;8.524;2022-08-06T08:07:13;1.63;;;1.40;;
12222;SDS011;6174;49.058;8.524;2022-08-06T08:09:42;1.30;;;1.17;;
12222;SDS011;6174;49.058;8.524;2022-08-06T08:12:10;1.40;;;1.30;;
12222;SDS011;6174;49.058;8.524;2022-08-06T08:14:38;2.93;;;1.30;;
12222;SDS011;6174;49.058;8.524;2022-08-06T08:17:08;2.30;;;1.20;;
12222;SDS011;6174;49.058;8.524;2022-08-06T08:19:35;2.70;;;1.33;;
12222;SDS011;6174;49.058;8.524;2022-08-06T08:22:04;1.80;;;1.40;;
12222;SDS011;6174;49.058;8.524;2022-08-06T08:24:32;1.13;;;1.10;;
12222;SDS011;6174;49.058;8.524;2022-08-06T08:27:02;2.43;;;1.23;;
12222;SDS011;6174;49.058;8.524;2022-08-06T08:29:33;1.77;;;1.10;;
12222;SDS011;6174;49.058;8.524;2022-08-06T08:32:00;1.60;;;1.50;;
12222;SDS011;6174;49.058;8.524;2022-08-06T08:34:28;2.77;;;1.27;;
12222;SDS011;6174;49.058;8.524;2022-08-06T08:36:56;1.33;;;1.23;;
12222;SDS011;6174;49.058;8.524;2022-08-06T08:39:22;2.30;;;1.23;;
12222;SDS011;6174;49.058;8.524;2022-08-06T08:41:51;1.47;;;1.37;;
12222;SDS011;6174;49.058;8.524;2022-08-06T08:44:23;1.93;;;1.30;;
12222;SDS011;6174;49.058;8.524;2022-08-06T08:46:54;2.77;;;2.17;;
12222;SDS011;6174;49.058;8.524;2022-08-06T08:49:25;2.97;;;1.30;;
12222;SDS011;6174;49.058;8.524;2022-08-06T08:51:56;2.07;;;1.40;;
12222;SDS011;6174;49.058;8.524;2022-08-06T08:54:26;1.17;;;1.07;;
12222;SDS011;6174;49.058;8.524;2022-08-06T08:56:55;1.77;;;1.10;;
12222;SDS011;6174;49.058;8.524;2022-08-06T08:59:23;2.23;;;1.40;;
12222;SDS011;6174;49.058;8.524;2022-08-06T09:01:51;2.97;;;1.30;;
12222;SDS011;6174;49.058;8.524;2022-08-06T09:04:18;2.97;;;1.50;;
12222;SDS011;6174;49.058;8.524;2022-08-06T09:06:46;6.95;;;1.80;;
12222;SDS011;6174;49.058;8.524;2022-08-06T09:09:13;16.95;;;2.60;;
12222;SDS011;6174;49.058;8.524;2022-08-06T09:11:40;13.60;;;2.50;;
12222;SDS011;6174;49.058;8.524;2022-08-06T09:14:08;2.83;;;1.70;;
12222;SDS011;6174;49.058;8.524;2022-08-06T09:16:36;2.03;;;1.17;;
12222;SDS011;6174;49.058;8.524;2022-08-06T09:19:04;2.20;;;1.20;;
12222;SDS011;6174;49.058;8.524;2022-08-06T09:21:31;2.58;;;1.52;;
12222;SDS011;6174;49.058;8.524;2022-08-06T09:23:58;6.13;;;1.70;;
12222;SDS011;6174;49.058;8.524;2022-08-06T09:26:26;2.77;;;1.30;;
12222;SDS011;6174;49.058;8.524;2022-08-06T09:28:52;1.20;;;1.10;;
12222;SDS011;6174;49.058;8.524;2022-08-06T09:31:20;6.23;;;2.40;;
12222;SDS011;6174;49.058;8.524;2022-08-06T09:33:55;2.00;;;1.07;;
12222;SDS011;6174;49.058;8.524;2022-08-06T09:36:23;3.13;;;1.20;;
12222;SDS011;6174;49.058;8.524;2022-08-06T09:38:51;4.10;;;1.50;;
12222;SDS011;6174;49.058;8.524;2022-08-06T09:41:19;2.23;;;1.10;;
12222;SDS011;6174;49.058;8.524;2022-08-06T09:43:48;2.20;;;1.30;;
12222;SDS011;6174;49.058;8.524;2022-08-06T09:46:17;1.40;;;1.20;;
12222;SDS011;6174;49.058;8.524;2022-08-06T09:49:02;1.20;;;1.10;;
12222;SDS011;6174;49.058;8.524;2022-08-06T09:51:29;1.20;;;1.00;;
12222;SDS011;6174;49.058;8.524;2022-08-06T09:54:00;1.23;;;0.90;;
12222;SDS011;6174;49.058;8.524;2022-08-06T09:56:28;1.50;;;1.20;;
12222;SDS011;6174;49.058;8.524;2022-08-06T09:58:56;2.10;;;1.13;;
12222;SDS011;6174;49.058;8.524;2022-08-06T10:01:24;1.30;;;1.20;;
12222;SDS011;6174;49.058;8.524;2022-08-06T10:03:52;2.30;;;1.20;;
12222;SDS011;6174;49.058;8.524;2022-08-06T10:06:22;1.10;;;1.00;;
12222;SDS011;6174;49.058;8.524;2022-08-06T10:09:05;1.60;;;1.50;;
12222;SDS011;6174;49.058;8.524;2022-08-06T10:11:34;1.75;;;1.20;;
12222;SDS011;6174;49.058;8.524;2022-08-06T10:14:02;1.40;;;1.30;;
12222;SDS011;6174;49.058;8.524;2022-08-06T10:16:29;1.30;;;0.95;;
12222;SDS011;6174;49.058;8.524;2022-08-06T10:18:57;1.75;;;1.08;;
12222;SDS011;6174;49.058;8.524;2022-08-06T10:21:27;1.05;;;1.00;;
12222;SDS011;6174;49.058;8.524;2022-08-06T10:23:55;2.28;;;1.30;;
12222;SDS011;6174;49.058;8.524;2022-08-06T10:26:29;1.52;;;1.23;;
12222;SDS011;6174;49.058;8.524;2022-08-06T10:29:00;1.27;;;1.15;;
12222;SDS011;6174;49.058;8.524;2022-08-06T10:31:28;1.20;;;1.10;;
12222;SDS011;6174;49.058;8.524;2022-08-06T10:33:58;1.20;;;1.10;;
12222;SDS011;6174;49.058;8.524;2022-08-06T10:36:34;1.52;;;0.95;;
12222;SDS011;6174;49.058;8.524;2022-08-06T10:39:04;1.75;;;1.05;;
12222;SDS011;6174;49.058;8.524;2022-08-06T10:41:32;1.30;;;0.93;;
12222;SDS011;6174;49.058;8.524;2022-08-06T10:44:04;1.85;;;1.15;;
12222;SDS011;6174;49.058;8.524;2022-08-06T10:46:31;1.20;;;1.10;;
12222;SDS011;6174;49.058;8.524;2022-08-06T10:48:58;1.50;;;1.10;;
12222;SDS011;6174;49.058;8.524;2022-08-06T10:51:30;1.23;;;1.13;;
12222;SDS011;6174;49.058;8.524;2022-08-06T10:53:58;1.42;;;0.90;;
12222;SDS011;6174;49.058;8.524;2022-08-06T10:56:25;2.15;;;1.15;;
12222;SDS011;6174;49.058;8.524;2022-08-06T10:58:53;0.90;;;0.90;;
12222;SDS011;6174;49.058;8.524;2022-08-06T11:01:26;1.88;;;1.10;;
12222;SDS011;6174;49.058;8.524;2022-08-06T11:04:04;1.95;;;0.90;;
12222;SDS011;6174;49.058;8.524;2022-08-06T11:09:51;1.33;;;1.23;;
12222;SDS011;6174;49.058;8.524;2022-08-06T11:12:36;2.65;;;0.98;;
12222;SDS011;6174;49.058;8.524;2022-08-06T11:15:10;3.42;;;1.25;;
12222;SDS011;6174;49.058;8.524;2022-08-06T11:17:44;1.83;;;1.20;;
12222;SDS011;6174;49.058;8.524;2022-08-06T11:23:03;3.15;;;1.30;;
12222;SDS011;6174;49.058;8.524;2022-08-06T11:25:36;1.67;;;1.20;;
12222;SDS011;6174;49.058;8.524;2022-08-06T11:28:04;1.73;;;1.33;;
12222;SDS011;6174;49.058;8.524;2022-08-06T11:30:38;1.30;;;1.20;;
12222;SDS011;6174;49.058;8.524;2022-08-06T11:33:07;1.70;;;1.20;;
12222;SDS011;6174;49.058;8.524;2022-08-06T11:35:45;2.20;;;1.10;;
12222;SDS011;6174;49.058;8.524;2022-08-06T11:38:16;1.10;;;1.08;;
12222;SDS011;6174;49.058;8.524;2022-08-06T11:41:07;1.30;;;1.20;;
12222;SDS011;6174;49.058;8.524;2022-08-06T11:43:48;1.17;;;0.90;;
12222;SDS011;6174;49.058;8.524;2022-08-06T11:46:31;1.63;;;1.15;;
12222;SDS011;6174;49.058;8.524;2022-08-06T11:51:48;1.27;;;1.05;;
12222;SDS011;6174;49.058;8.524;2022-08-06T11:54:19;1.83;;;1.23;;
12222;SDS011;6174;49.058;8.524;2022-08-06T11:59:44;2.05;;;1.10;;
12222;SDS011;6174;49.058;8.524;2022-08-06T12:02:14;1.55;;;0.98;;
12222;SDS011;6174;49.058;8.524;2022-08-06T12:04:43;1.33;;;1.00;;
12222;SDS011;6174;49.058;8.524;2022-08-06T12:07:15;1.35;;;1.08;;
12222;SDS011;6174;49.058;8.524;2022-08-06T12:09:45;1.10;;;1.08;;
12222;SDS011;6174;49.058;8.524;2022-08-06T12:12:32;1.05;;;0.95;;
12222;SDS011;6174;49.058;8.524;2022-08-06T12:15:03;2.67;;;1.17;;
12222;SDS011;6174;49.058;8.524;2022-08-06T12:18:00;1.23;;;1.13;;
12222;SDS011;6174;49.058;8.524;2022-08-06T12:20:28;1.80;;;1.08;;
12222;SDS011;6174;49.058;8.524;2022-08-06T12:22:56;2.60;;;1.20;;
12222;SDS011;6174;49.058;8.524;2022-08-06T12:25:30;1.17;;;0.85;;
12222;SDS011;6174;49.058;8.524;2022-08-06T12:27:58;1.20;;;1.10;;
12222;SDS011;6174;49.058;8.524;2022-08-06T12:30:25;1.05;;;0.95;;
12222;SDS011;6174;49.058;8.524;2022-08-06T12:32:58;1.27;;;1.17;;
12222;SDS011;6174;49.058;8.524;2022-08-06T12:35:25;1.13;;;1.00;;
12222;SDS011;6174;49.058;8.524;2022-08-06T12:37:52;2.35;;;1.20;;
12222;SDS011;6174;49.058;8.524;2022-08-06T12:40:20;2.00;;;1.20;;
12222;SDS011;6174;49.058;8.524;2022-08-06T12:42:53;1.38;;;0.82;;
12222;SDS011;6174;49.058;8.524;2022-08-06T12:45:21;0.90;;;0.90;;
12222;SDS011;6174;49.058;8.524;2022-08-06T12:47:56;0.88;;;0.88;;
12222;SDS011;6174;49.058;8.524;2022-08-06T12:50:24;1.38;;;1.10;;
12222;SDS011;6174;49.058;8.524;2022-08-06T12:53:01;3.30;;;1.00;;
12222;SDS011;6174;49.058;8.524;2022-08-06T12:55:29;1.30;;;0.90;;
12222;SDS011;6174;49.058;8.524;2022-08-06T12:57:58;0.98;;;0.98;;
12222;SDS011;6174;49.058;8.524;2022-08-06T13:00:27;1.50;;;0.98;;
12222;SDS011;6174;49.058;8.524;2022-08-06T13:02:55;1.95;;;1.00;;
12222;SDS011;6174;49.058;8.524;2022-08-06T13:05:23;1.20;;;1.10;;
12222;SDS011;6174;49.058;8.524;2022-08-06T13:07:53;1.90;;;1.00;;
12222;SDS011;6174;49.058;8.524;2022-08-06T13:10:20;1.77;;;0.80;;
12222;SDS011;6174;49.058;8.524;2022-08-06T13:12:52;1.98;;;1.10;;
12222;SDS011;6174;49.058;8.524;2022-08-06T13:15:21;1.60;;;1.00;;
12222;SDS011;6174;49.058;8.524;2022-08-06T13:18:03;1.65;;;0.98;;
12222;SDS011;6174;49.058;8.524;2022-08-06T13:20:37;1.27;;;1.00;;
12222;SDS011;6174;49.058;8.524;2022-08-06T13:23:05;1.70;;;0.95;;
12222;SDS011;6174;49.058;8.524;2022-08-06T13:25:41;2.55;;;1.02;;
12222;SDS011;6174;49.058;8.524;2022-08-06T13:28:09;1.67;;;0.88;;
12222;SDS011;6174;49.058;8.524;2022-08-06T13:30:39;2.80;;;1.10;;
12222;SDS011;6174;49.058;8.524;2022-08-06T13:33:13;1.85;;;1.00;;
12222;SDS011;6174;49.058;8.524;2022-08-06T13:35:41;1.35;;;1.10;;
12222;SDS011;6174;49.058;8.524;2022-08-06T13:38:07;1.52;;;0.70;;
12222;SDS011;6174;49.058;8.524;2022-08-06T13:40:38;1.17;;;1.00;;
12222;SDS011;6174;49.058;8.524;2022-08-06T13:43:08;1.00;;;1.00;;
12222;SDS011;6174;49.058;8.524;2022-08-06T13:45:36;1.63;;;1.27;;
12222;SDS011;6174;49.058;8.524;2022-08-06T13:48:06;1.35;;;1.10;;
12222;SDS011;6174;49.058;8.524;2022-08-06T13:50:35;3.35;;;1.02;;
12222;SDS011;6174;49.058;8.524;2022-08-06T13:53:04;1.08;;;0.90;;
12222;SDS011;6174;49.058;8.524;2022-08-06T13:55:31;2.08;;;1.00;;
12222;SDS011;6174;49.058;8.524;2022-08-06T13:57:58;3.03;;;1.00;;
12222;SDS011;6174;49.058;8.524;2022-08-06T14:00:25;0.95;;;0.90;;
12222;SDS011;6174;49.058;8.524;2022-08-06T14:02:54;1.38;;;0.93;;
12222;SDS011;6174;49.058;8.524;2022-08-06T14:05:21;1.10;;;1.00;;
12222;SDS011;6174;49.058;8.524;2022-08-06T14:07:49;0.98;;;0.82;;
12222;SDS011;6174;49.058;8.524;2022-08-06T14:10:16;1.40;;;0.82;;
12222;SDS011;6174;49.058;8.524;2022-08-06T14:12:43;1.42;;;1.00;;
12222;SDS011;6174;49.058;8.524;2022-08-06T14:15:30;1.48;;;1.23;;
12222;SDS011;6174;49.058;8.524;2022-08-06T14:17:59;1.10;;;1.00;;
12222;SDS011;6174;49.058;8.524;2022-08-06T14:20:26;1.83;;;1.00;;
12222;SDS011;6174;49.058;8.524;2022-08-06T14:22:53;2.15;;;0.80;;
12222;SDS011;6174;49.058;8.524;2022-08-06T14:25:21;0.70;;;0.70;;
12222;SDS011;6174;49.058;8.524;2022-08-06T14:27:48;1.20;;;0.90;;
12222;SDS011;6174;49.058;8.524;2022-08-06T14:30:15;1.33;;;1.10;;
12222;SDS011;6174;49.058;8.524;2022-08-06T14:32:42;1.05;;;0.85;;
12222;SDS011;6174;49.058;8.524;2022-08-06T14:35:11;1.08;;;0.57;;
12222;SDS011;6174;49.058;8.524;2022-08-06T14:37:38;0.80;;;0.80;;
12222;SDS011;6174;49.058;8.524;2022-08-06T14:40:08;1.15;;;1.05;;
12222;SDS011;6174;49.058;8.524;2022-08-06T14:42:35;0.73;;;0.73;;
12222;SDS011;6174;49.058;8.524;2022-08-06T14:45:20;1.30;;;1.15;;
12222;SDS011;6174;49.058;8.524;2022-08-06T14:47:47;1.20;;;1.10;;
12222;SDS011;6174;49.058;8.524;2022-08-06T14:50:15;1.70;;;0.90;;
12222;SDS011;6174;49.058;8.524;2022-08-06T14:52:42;1.73;;;0.95;;
12222;SDS011;6174;49.058;8.524;2022-08-06T14:55:10;2.25;;;1.00;;
12222;SDS011;6174;49.058;8.524;2022-08-06T14:57:39;0.82;;;0.70;;
12222;SDS011;6174;49.058;8.524;2022-08-06T15:00:06;1.33;;;0.85;;
12222;SDS011;6174;49.058;8.524;2022-08-06T15:02:35;1.13;;;0.95;;
12222;SDS011;6174;49.058;8.524;2022-08-06T15:05:02;2.78;;;1.30;;
12222;SDS011;6174;49.058;8.524;2022-08-06T15:07:30;2.25;;;0.98;;
12222;SDS011;6174;49.058;8.524;2022-08-06T15:09:57;1.55;;;0.82;;
12222;SDS011;6174;49.058;8.524;2022-08-06T15:12:24;2.05;;;0.85;;
12222;SDS011;6174;49.058;8.524;2022-08-06T15:14:51;1.95;;;0.90;;
12222;SDS011;6174;49.058;8.524;2022-08-06T15:17:17;1.02;;;0.85;;
12222;SDS011;6174;49.058;8.524;2022-08-06T15:19:44;1.15;;;0.90;;
12222;SDS011;6174;49.058;8.524;2022-08-06T15:22:11;0.85;;;0.85;;
12222;SDS011;6174;49.058;8.524;2022-08-06T15:24:39;0.70;;;0.70;;
12222;SDS011;6174;49.058;8.524;2022-08-06T15:27:06;1.38;;;1.13;;
12222;SDS011;6174;49.058;8.524;2022-08-06T15:29:32;1.50;;;0.90;;
12222;SDS011;6174;49.058;8.524;2022-08-06T15:31:59;1.23;;;1.00;;
12222;SDS011;6174;49.058;8.524;2022-08-06T15:34:26;1.13;;;1.00;;